Time,TemperatureF,DewpointF,PressureIn,WindDirection,WindDirectionDegrees,WindSpeedMPH,WindSpeedGustMPH,Humidity,HourlyPrecipIn,Conditions,Clouds,dailyrainin,SoftwareType,DateUTC
2013-01-17 00:00:00,31.6,21.9,30.21,SW,225,0.0,0.0,67,0.00,CLR,,0.00,WeatherDisplay:10.37,2013-01-17 06:00:00,
2013-01-17 00:05:00,31.6,21.9,30.21,SW,225,0.0,0.0,67,0.00,CLR,,0.00,WeatherDisplay:10.37,2013-01-17 06:05:00,
2013-01-17 00:10:00,31.6,21.9,30.22,SW,225,0.0,0.0,67,0.00,CLR,,0.00,WeatherDisplay:10.37,2013-01-17 06:10:00,
2013-01-17 00:15:00,31.6,21.9,30.22,SW,225,0.0,0.0,67,0.00,CLR,,0.00,WeatherDisplay:10.37,2013-01-17 06:15:00,
2013-01-17 00:20:00,31.6,21.9,30.22,SW,225,0.0,0.0,67,0.00,CLR,,0.00,WeatherDisplay:10.37,2013-01-17 06:20:00,
2013-01-17 00:25:00,31.6,21.9,30.23,SW,225,0.0,0.0,67,0.00,CLR,,0.00,WeatherDisplay:10.37,2013-01-17 06:25:00,
2013-01-17 00:30:00,31.8,22.1,30.23,SW,225,0.0,0.0,67,0.00,CLR,,0.00,WeatherDisplay:10.37,2013-01-17 06:30:00,
2013-01-17 00:35:00,32.2,22.4,30.23,SW,225,0.0,0.0,67,0.00,CLR,,0.00,WeatherDisplay:10.37,2013-01-17 06:35:00,
2013-01-17 00:40:00,32.2,22.4,30.23,SW,225,0.0,0.0,67,0.00,CLR,,0.00,WeatherDisplay:10.37,2013-01-17 06:40:00,
2013-01-17 00:45:00,32.2,22.4,30.24,SW,225,0.0,0.0,67,0.00,CLR,,0.00,WeatherDisplay:10.37,2013-01-17 06:45:00,
2013-01-17 00:50:00,32.2,22.4,30.24,SW,225,2.5,2.5,67,0.00,CLR,,0.00,WeatherDisplay:10.37,2013-01-17 06:50:00,
2013-01-17 00:55:00,32.4,22.6,30.24,SW,225,0.0,0.0,67,0.00,CLR,,0.00,WeatherDisplay:10.37,2013-01-17 06:55:00,
2013-01-17 01:00:00,32.4,22.6,30.24,SW,225,4.6,4.6,67,0.00,CLR,,0.00,WeatherDisplay:10.37,2013-01-17 07:00:00,
2013-01-17 01:05:00,32.4,22.6,30.24,SW,225,0.0,0.0,67,0.00,CLR,,0.00,WeatherDisplay:10.37,2013-01-17 07:05:00,
2013-01-17 01:10:00,32.5,22.8,30.25,SW,225,0.0,0.0,67,0.00,CLR,,0.00,WeatherDisplay:10.37,2013-01-17 07:10:00,
2013-01-17 01:15:00,32.5,22.8,30.25,WSW,248,0.0,0.0,67,0.00,CLR,,0.00,WeatherDisplay:10.37,2013-01-17 07:15:00,
2013-01-17 01:20:00,32.5,22.4,30.25,WSW,248,0.0,0.0,66,0.00,CLR,,0.00,WeatherDisplay:10.37,2013-01-17 07:20:00,
2013-01-17 01:25:00,32.4,22.3,30.25,WSW,248,0.0,0.0,66,0.00,CLR,,0.00,WeatherDisplay:10.37,2013-01-17 07:25:00,
2013-01-17 01:30:00,32.2,22.1,30.25,WSW,248,0.0,0.0,66,0.00,CLR,,0.00,WeatherDisplay:10.37,2013-01-17 07:30:00,
2013-01-17 01:35:00,32.2,22.1,30.26,SW,225,0.0,0.0,66,0.00,CLR,,0.00,WeatherDisplay:10.37,2013-01-17 07:35:00,
2013-01-17 01:40:00,32.2,22.4,30.26,SW,225,4.6,4.6,67,0.00,CLR,,0.00,WeatherDisplay:10.37,2013-01-17 07:40:00,
2013-01-17 01:45:00,32.2,22.4,30.26,WSW,248,0.0,0.0,67,0.00,CLR,,0.00,WeatherDisplay:10.37,2013-01-17 07:45:00,
2013-01-17 01:50:00,32.4,22.6,30.26,WSW,248,0.0,0.0,67,0.00,CLR,,0.00,WeatherDisplay:10.37,2013-01-17 07:50:00,
2013-01-17 01:55:00,32.4,22.6,30.27,West,270,0.0,0.0,67,0.00,CLR,,0.00,WeatherDisplay:10.37,2013-01-17 07:55:00,
2013-01-17 02:00:00,32.5,22.8,30.27,West,270,0.0,0.0,67,0.00,CLR,,0.00,WeatherDisplay:10.37,2013-01-17 08:00:00,
2013-01-17 02:05:00,32.7,23.0,30.27,WNW,292,2.3,2.3,67,0.00,CLR,,0.00,WeatherDisplay:10.37,2013-01-17 08:05:00,
2013-01-17 02:10:00,32.7,23.0,30.27,West,270,0.0,0.0,67,0.00,CLR,,0.00,WeatherDisplay:10.37,2013-01-17 08:10:00,
2013-01-17 02:15:00,32.4,22.6,30.27,West,270,0.0,0.0,67,0.00,CLR,,0.00,WeatherDisplay:10.37,2013-01-17 08:15:00,
2013-01-17 02:20:00,32.2,22.4,30.27,WSW,248,0.0,0.0,67,0.00,CLR,,0.00,WeatherDisplay:10.37,2013-01-17 08:20:00,
2013-01-17 02:25:00,31.5,21.8,30.28,WNW,292,4.6,4.6,67,0.00,CLR,,0.00,WeatherDisplay:10.37,2013-01-17 08:25:00,
2013-01-17 02:30:00,30.9,21.2,30.28,WSW,248,3.5,3.6,67,0.00,CLR,,0.00,WeatherDisplay:10.37,2013-01-17 08:30:00,
2013-01-17 02:35:00,30.9,21.6,30.28,SW,225,0.0,0.0,68,0.00,CLR,,0.00,WeatherDisplay:10.37,2013-01-17 08:35:00,
2013-01-17 02:40:00,30.9,21.6,30.27,SW,225,0.0,0.0,68,0.00,CLR,,0.00,WeatherDisplay:10.37,2013-01-17 08:40:00,
2013-01-17 02:45:00,31.1,22.1,30.28,WSW,248,0.0,0.0,69,0.00,CLR,,0.00,WeatherDisplay:10.37,2013-01-17 08:45:00,
2013-01-17 02:50:00,30.9,21.9,30.28,West,270,0.0,0.0,69,0.00,CLR,,0.00,WeatherDisplay:10.37,2013-01-17 08:50:00,
2013-01-17 02:55:00,30.9,21.9,30.28,West,270,0.0,0.0,69,0.00,CLR,,0.00,WeatherDisplay:10.37,2013-01-17 08:55:00,
2013-01-17 03:00:00,30.4,21.4,30.28,West,270,0.0,0.0,69,0.00,CLR,,0.00,WeatherDisplay:10.37,2013-01-17 09:00:00,
2013-01-17 03:05:00,29.8,20.9,30.28,West,270,0.0,0.0,69,0.00,CLR,,0.00,WeatherDisplay:10.37,2013-01-17 09:05:00,
2013-01-17 03:10:00,29.7,20.7,30.28,West,270,0.0,0.0,69,0.00,CLR,,0.00,WeatherDisplay:10.37,2013-01-17 09:10:00,
2013-01-17 03:15:00,28.9,20.4,30.28,West,270,0.0,0.0,70,0.00,CLR,,0.00,WeatherDisplay:10.37,2013-01-17 09:15:00,
2013-01-17 03:20:00,28.6,20.0,30.28,West,270,0.0,0.0,70,0.00,CLR,,0.00,WeatherDisplay:10.37,2013-01-17 09:20:00,
2013-01-17 03:25:00,28.6,20.0,30.28,West,270,0.0,0.0,70,0.00,CLR,,0.00,WeatherDisplay:10.37,2013-01-17 09:25:00,
2013-01-17 03:30:00,28.4,20.2,30.28,West,270,0.0,0.0,71,0.00,CLR,,0.00,WeatherDisplay:10.37,2013-01-17 09:30:00,
2013-01-17 03:35:00,28.0,19.8,30.28,West,270,0.0,0.0,71,0.00,CLR,,0.00,WeatherDisplay:10.37,2013-01-17 09:35:00,
2013-01-17 03:40:00,28.0,20.2,30.29,NW,315,0.0,0.0,72,0.00,CLR,,0.00,WeatherDisplay:10.37,2013-01-17 09:40:00,
2013-01-17 03:45:00,28.0,20.2,30.29,WNW,297,0.0,0.0,72,0.00,CLR,,0.00,WeatherDisplay:10.37,2013-01-17 09:45:00,
2013-01-17 03:50:00,28.6,21.0,30.29,NW,315,0.0,0.0,73,0.00,CLR,,0.00,WeatherDisplay:10.37,2013-01-17 09:50:00,
2013-01-17 03:55:00,28.9,21.7,30.30,NW,315,0.0,0.0,74,0.00,CLR,,0.00,WeatherDisplay:10.37,2013-01-17 09:55:00,
2013-01-17 04:00:00,29.1,22.2,30.30,NW,315,0.0,0.0,75,0.00,CLR,,0.00,WeatherDisplay:10.37,2013-01-17 10:00:00,
2013-01-17 04:05:00,29.5,22.5,30.30,WNW,292,0.0,0.0,75,0.00,CLR,,0.00,WeatherDisplay:10.37,2013-01-17 10:05:00,
2013-01-17 04:10:00,29.7,23.0,30.30,WNW,292,0.0,0.0,76,0.00,CLR,,0.00,WeatherDisplay:10.37,2013-01-17 10:10:00,
2013-01-17 04:15:00,29.8,23.2,30.31,WNW,292,0.0,0.0,76,0.00,CLR,,0.00,WeatherDisplay:10.37,2013-01-17 10:15:00,
2013-01-17 04:20:00,29.8,23.2,30.31,NW,315,0.0,0.0,76,0.00,CLR,,0.00,WeatherDisplay:10.37,2013-01-17 10:20:00,
2013-01-17 04:25:00,29.7,23.0,30.31,NNW,338,0.0,0.0,76,0.00,CLR,,0.00,WeatherDisplay:10.37,2013-01-17 10:25:00,
2013-01-17 04:30:00,29.3,22.4,30.32,NW,315,0.0,0.0,75,0.00,CLR,,0.00,WeatherDisplay:10.37,2013-01-17 10:30:00,
2013-01-17 04:35:00,29.1,22.2,30.32,WNW,292,0.0,0.0,75,0.00,CLR,,0.00,WeatherDisplay:10.37,2013-01-17 10:35:00,
2013-01-17 04:41:00,29.3,22.4,30.32,WNW,292,0.0,0.0,75,0.00,CLR,,0.00,WeatherDisplay:10.37,2013-01-17 10:41:00,
2013-01-17 04:46:00,29.3,22.7,30.32,WNW,292,0.0,0.0,76,0.00,CLR,,0.00,WeatherDisplay:10.37,2013-01-17 10:46:00,
2013-01-17 04:51:00,29.1,22.5,30.32,WNW,292,0.0,0.0,76,0.00,CLR,,0.00,WeatherDisplay:10.37,2013-01-17 10:51:00,
2013-01-17 04:56:00,29.1,22.5,30.32,WNW,292,2.3,2.3,76,0.00,CLR,,0.00,WeatherDisplay:10.37,2013-01-17 10:56:00,
2013-01-17 05:01:00,29.8,23.2,30.32,WNW,292,0.0,0.0,76,0.00,CLR,,0.00,WeatherDisplay:10.37,2013-01-17 11:01:00,
2013-01-17 05:06:00,29.8,23.5,30.32,WNW,292,5.8,6.3,77,0.00,CLR,,0.00,WeatherDisplay:10.37,2013-01-17 11:06:00,
2013-01-17 05:11:00,30.6,24.2,30.33,NNW,338,0.0,0.0,77,0.00,CLR,,0.00,WeatherDisplay:10.37,2013-01-17 11:11:00,
2013-01-17 05:17:00,30.4,23.7,30.33,NNW,338,2.3,0.0,76,0.00,CLR,,0.00,WeatherDisplay:10.37,2013-01-17 11:17:00,
2013-01-17 05:22:00,30.2,22.6,30.33,NNW,338,0.0,0.0,73,0.00,CLR,,0.00,WeatherDisplay:10.37,2013-01-17 11:22:00,
2013-01-17 05:27:00,29.8,21.6,30.34,NNW,338,0.0,0.0,71,0.00,CLR,,0.00,WeatherDisplay:10.37,2013-01-17 11:27:00,
2013-01-17 05:32:00,29.3,20.4,30.35,NW,315,0.0,0.0,69,0.00,CLR,,0.00,WeatherDisplay:10.37,2013-01-17 11:32:00,
2013-01-17 05:37:00,29.1,19.9,30.35,NW,315,0.0,0.0,68,0.00,CLR,,0.00,WeatherDisplay:10.37,2013-01-17 11:37:00,
2013-01-17 05:42:00,28.9,19.3,30.35,NNW,338,4.9,4.9,67,0.00,CLR,,0.00,WeatherDisplay:10.37,2013-01-17 11:42:00,
2013-01-17 05:47:00,28.6,18.7,30.35,NW,315,1.2,1.2,66,0.00,CLR,,0.00,WeatherDisplay:10.37,2013-01-17 11:47:00,
2013-01-17 05:52:00,28.2,18.3,30.35,North,0,0.0,0.0,66,0.00,CLR,,0.00,WeatherDisplay:10.37,2013-01-17 11:52:00,
2013-01-17 05:57:00,28.2,18.0,30.35,WNW,292,0.0,0.0,65,0.00,CLR,,0.00,WeatherDisplay:10.37,2013-01-17 11:57:00,
2013-01-17 06:02:00,27.9,17.6,30.36,NNW,338,5.8,5.8,65,0.00,CLR,,0.00,WeatherDisplay:10.37,2013-01-17 12:02:00,
2013-01-17 06:07:00,27.9,17.3,30.36,NNW,338,1.2,1.2,64,0.00,CLR,,0.00,WeatherDisplay:10.37,2013-01-17 12:07:00,
2013-01-17 06:12:00,27.9,17.3,30.37,NW,315,0.0,0.0,64,0.00,CLR,,0.00,WeatherDisplay:10.37,2013-01-17 12:12:00,
2013-01-17 06:17:00,27.5,16.9,30.37,NNW,338,0.0,0.0,64,0.00,CLR,,0.00,WeatherDisplay:10.37,2013-01-17 12:17:00,
2013-01-17 06:22:00,27.3,16.4,30.37,NW,315,3.5,3.5,63,0.00,CLR,,0.00,WeatherDisplay:10.37,2013-01-17 12:22:00,
2013-01-17 06:27:00,27.0,16.4,30.37,North,0,0.0,0.0,64,0.00,CLR,,0.00,WeatherDisplay:10.37,2013-01-17 12:27:00,
2013-01-17 06:32:00,26.8,16.2,30.37,North,0,0.0,0.0,64,0.00,CLR,,0.00,WeatherDisplay:10.37,2013-01-17 12:32:00,
2013-01-17 06:37:00,26.8,15.9,30.37,NW,315,0.0,0.0,63,0.00,CLR,,0.00,WeatherDisplay:10.37,2013-01-17 12:37:00,
2013-01-17 06:42:00,26.8,15.9,30.37,NW,315,2.7,2.7,63,0.00,CLR,,0.00,WeatherDisplay:10.37,2013-01-17 12:42:00,
2013-01-17 06:47:00,26.4,15.5,30.37,NW,315,3.5,3.5,63,0.00,CLR,,0.00,WeatherDisplay:10.37,2013-01-17 12:47:00,
2013-01-17 06:52:00,26.4,15.5,30.37,WNW,292,8.1,8.1,63,0.00,CLR,,0.00,WeatherDisplay:10.37,2013-01-17 12:52:00,
2013-01-17 06:57:00,26.2,15.3,30.37,NW,315,0.0,0.0,63,0.00,CLR,,0.00,WeatherDisplay:10.37,2013-01-17 12:57:00,
2013-01-17 07:02:00,26.1,15.2,30.37,WNW,292,4.0,4.0,63,0.00,CLR,,0.00,WeatherDisplay:10.37,2013-01-17 13:02:00,
2013-01-17 07:07:00,26.1,15.2,30.38,North,0,1.2,1.2,63,0.00,CLR,,0.00,WeatherDisplay:10.37,2013-01-17 13:07:00,
2013-01-17 07:12:00,26.1,15.2,30.38,NW,315,8.0,0.0,63,0.00,CLR,,0.00,WeatherDisplay:10.37,2013-01-17 13:12:00,
2013-01-17 07:17:00,25.9,14.6,30.38,WNW,292,8.1,8.1,62,0.00,CLR,,0.00,WeatherDisplay:10.37,2013-01-17 13:17:00,
2013-01-17 07:22:00,25.7,14.1,30.38,NNW,338,0.0,4.5,61,0.00,CLR,,0.00,WeatherDisplay:10.37,2013-01-17 13:22:00,
2013-01-17 07:27:00,25.5,13.9,30.38,WNW,292,3.5,3.5,61,0.00,CLR,,0.00,WeatherDisplay:10.37,2013-01-17 13:27:00,
2013-01-17 07:32:00,25.5,13.5,30.38,WNW,292,0.0,0.0,60,0.00,CLR,,0.00,WeatherDisplay:10.37,2013-01-17 13:32:00,
2013-01-17 07:37:00,25.5,13.5,30.38,WNW,292,3.5,3.5,60,0.00,CLR,,0.00,WeatherDisplay:10.37,2013-01-17 13:37:00,
2013-01-17 07:42:00,25.3,13.4,30.39,WNW,292,0.0,0.0,60,0.00,CLR,,0.00,WeatherDisplay:10.37,2013-01-17 13:42:00,
2013-01-17 07:47:00,25.3,13.4,30.39,NW,315,5.8,5.8,60,0.00,CLR,,0.00,WeatherDisplay:10.37,2013-01-17 13:47:00,
2013-01-17 07:52:00,25.3,13.4,30.40,WNW,292,2.5,2.5,60,0.00,CLR,,0.00,WeatherDisplay:10.37,2013-01-17 13:52:00,
2013-01-17 07:57:00,25.7,13.7,30.40,NNW,338,7.6,7.6,60,0.00,CLR,,0.00,WeatherDisplay:10.37,2013-01-17 13:57:00,
2013-01-17 08:02:00,25.7,13.7,30.40,NW,315,2.3,2.3,60,0.00,CLR,,0.00,WeatherDisplay:10.37,2013-01-17 14:02:00,
2013-01-17 08:07:00,25.9,13.5,30.40,NNE,22,0.0,1.8,59,0.00,CLR,,0.00,WeatherDisplay:10.37,2013-01-17 14:07:00,
2013-01-17 08:12:00,26.1,13.7,30.40,NW,315,3.5,3.5,59,0.00,CLR,,0.00,WeatherDisplay:10.37,2013-01-17 14:12:00,
2013-01-17 08:17:00,26.2,13.1,30.41,WNW,292,4.6,4.6,57,0.00,CLR,,0.00,WeatherDisplay:10.37,2013-01-17 14:17:00,
2013-01-17 08:22:00,26.8,13.2,30.41,North,0,4.6,5.1,56,0.00,CLR,,0.00,WeatherDisplay:10.37,2013-01-17 14:22:00,
2013-01-17 08:27:00,27.0,13.3,30.42,WNW,292,10.4,10.4,56,0.00,CLR,,0.00,WeatherDisplay:10.37,2013-01-17 14:27:00,
2013-01-17 08:32:00,27.3,13.3,30.42,NW,315,6.9,7.1,55,0.00,CLR,,0.00,WeatherDisplay:10.37,2013-01-17 14:32:00,
2013-01-17 08:37:00,27.5,13.4,30.42,NW,315,8.1,8.1,55,0.00,CLR,,0.00,WeatherDisplay:10.37,2013-01-17 14:37:00,
2013-01-17 08:42:00,27.9,13.8,30.42,WNW,292,2.3,2.3,55,0.00,CLR,,0.00,WeatherDisplay:10.37,2013-01-17 14:42:00,
2013-01-17 08:47:00,27.9,13.8,30.42,NNW,338,0.0,0.0,55,0.00,CLR,,0.00,WeatherDisplay:10.37,2013-01-17 14:47:00,
2013-01-17 08:52:00,28.0,13.1,30.43,NW,315,3.5,3.5,53,0.00,CLR,,0.00,WeatherDisplay:10.37,2013-01-17 14:52:00,
2013-01-17 08:57:00,28.2,13.3,30.43,WNW,292,9.2,9.2,53,0.00,CLR,,0.00,WeatherDisplay:10.37,2013-01-17 14:57:00,
2013-01-17 09:02:00,28.4,13.0,30.43,NNE,22,5.8,8.6,52,0.00,CLR,,0.00,WeatherDisplay:10.37,2013-01-17 15:02:00,
2013-01-17 09:07:00,28.4,12.6,30.43,North,0,5.8,6.3,51,0.00,CLR,,0.00,WeatherDisplay:10.37,2013-01-17 15:07:00,
2013-01-17 09:12:00,28.4,11.6,30.43,WNW,292,3.4,3.4,49,0.00,CLR,,0.00,WeatherDisplay:10.37,2013-01-17 15:12:00,
2013-01-17 09:17:00,28.2,11.0,30.44,WNW,292,9.2,9.2,48,0.00,CLR,,0.00,WeatherDisplay:10.37,2013-01-17 15:17:00,
2013-01-17 09:22:00,28.6,10.9,30.44,North,0,8.1,8.1,47,0.00,CLR,,0.00,WeatherDisplay:10.37,2013-01-17 15:22:00,
2013-01-17 09:27:00,28.4,10.7,30.44,NW,315,5.8,5.8,47,0.00,CLR,,0.00,WeatherDisplay:10.37,2013-01-17 15:27:00,
2013-01-17 09:32:00,28.6,10.4,30.44,North,0,6.9,6.9,46,0.00,CLR,,0.00,WeatherDisplay:10.37,2013-01-17 15:32:00,
2013-01-17 09:37:00,28.6,10.4,30.44,North,0,4.0,4.1,46,0.00,CLR,,0.00,WeatherDisplay:10.37,2013-01-17 15:37:00,
2013-01-17 09:42:00,28.8,10.1,30.45,WNW,292,6.9,6.9,45,0.00,CLR,,0.00,WeatherDisplay:10.37,2013-01-17 15:42:00,
2013-01-17 09:47:00,28.8,9.6,30.45,WNW,292,8.1,8.1,44,0.00,CLR,,0.00,WeatherDisplay:10.37,2013-01-17 15:47:00,
2013-01-17 09:52:00,29.1,9.9,30.45,North,0,3.5,3.8,44,0.00,CLR,,0.00,WeatherDisplay:10.37,2013-01-17 15:52:00,
2013-01-17 09:57:00,29.7,9.9,30.45,WNW,292,5.1,5.1,43,0.00,CLR,,0.00,WeatherDisplay:10.37,2013-01-17 15:57:00,
2013-01-17 10:02:00,29.7,9.3,30.45,NW,315,10.4,10.4,42,0.00,CLR,,0.00,WeatherDisplay:10.37,2013-01-17 16:02:00,
2013-01-17 10:07:00,29.7,8.8,30.45,SE,135,0.0,0.0,41,0.00,CLR,,0.00,WeatherDisplay:10.37,2013-01-17 16:07:00,
2013-01-17 10:12:00,29.8,8.4,30.45,NE,45,8.1,8.1,40,0.00,CLR,,0.00,WeatherDisplay:10.37,2013-01-17 16:12:00,
2013-01-17 10:17:00,30.4,8.9,30.45,NE,45,0.0,0.0,40,0.00,CLR,,0.00,WeatherDisplay:10.37,2013-01-17 16:17:00,
2013-01-17 10:22:00,30.9,9.4,30.45,NNW,338,1.6,1.6,40,0.00,CLR,,0.00,WeatherDisplay:10.37,2013-01-17 16:22:00,
2013-01-17 10:27:00,31.1,9.6,30.45,NW,315,9.6,9.6,40,0.00,CLR,,0.00,WeatherDisplay:10.37,2013-01-17 16:27:00,
2013-01-17 10:32:00,30.4,6.6,30.45,NW,315,14.3,14.3,36,0.00,CLR,,0.00,WeatherDisplay:10.37,2013-01-17 16:32:00,
2013-01-17 10:37:00,30.4,7.2,30.45,NNW,338,1.2,1.2,37,0.00,CLR,,0.00,WeatherDisplay:10.37,2013-01-17 16:37:00,
2013-01-17 10:42:00,30.6,7.3,30.44,NW,315,6.9,6.9,37,0.00,CLR,,0.00,WeatherDisplay:10.37,2013-01-17 16:42:00,
2013-01-17 10:47:00,31.5,9.3,30.44,WNW,292,0.0,0.0,39,0.00,CLR,,0.00,WeatherDisplay:10.37,2013-01-17 16:47:00,
2013-01-17 10:52:00,31.5,7.5,30.44,WNW,292,8.1,8.1,36,0.00,CLR,,0.00,WeatherDisplay:10.37,2013-01-17 16:52:00,
2013-01-17 10:57:00,31.5,6.3,30.43,NNW,338,3.5,3.5,34,0.00,CLR,,0.00,WeatherDisplay:10.37,2013-01-17 16:57:00,
2013-01-17 11:02:00,31.8,6.6,30.44,NNW,338,0.0,0.0,34,0.00,CLR,,0.00,WeatherDisplay:10.37,2013-01-17 17:02:00,
2013-01-17 11:07:00,32.2,6.3,30.43,NNE,22,3.5,3.5,33,0.00,CLR,,0.00,WeatherDisplay:10.37,2013-01-17 17:07:00,
2013-01-17 11:12:00,31.5,0.5,30.43,NW,315,9.2,9.2,26,0.00,CLR,,0.00,WeatherDisplay:10.37,2013-01-17 17:12:00,
2013-01-17 11:17:00,31.1,1.0,30.43,WNW,292,6.9,7.4,27,0.00,CLR,,0.00,WeatherDisplay:10.37,2013-01-17 17:17:00,
2013-01-17 11:22:00,31.1,3.2,30.43,NW,315,8.1,8.1,30,0.00,CLR,,0.00,WeatherDisplay:10.37,2013-01-17 17:22:00,
2013-01-17 11:27:00,31.6,5.1,30.43,NNW,338,0.0,0.0,32,0.00,CLR,,0.00,WeatherDisplay:10.37,2013-01-17 17:27:00,
2013-01-17 11:32:00,31.8,3.9,30.43,WNW,292,4.6,4.9,30,0.00,CLR,,0.00,WeatherDisplay:10.37,2013-01-17 17:32:00,
2013-01-17 11:37:00,31.6,3.0,30.43,WNW,292,6.9,6.9,29,0.00,CLR,,0.00,WeatherDisplay:10.37,2013-01-17 17:37:00,
2013-01-17 11:42:00,32.7,4.6,30.43,NNE,22,1.2,1.2,30,0.00,CLR,,0.00,WeatherDisplay:10.37,2013-01-17 17:42:00,
2013-01-17 11:47:00,32.5,-3.2,30.44,NW,315,12.7,13.0,21,0.00,CLR,,0.00,WeatherDisplay:10.37,2013-01-17 17:47:00,
2013-01-17 11:52:00,32.9,-4.9,30.43,NNE,22,8.1,8.1,19,0.00,CLR,,0.00,WeatherDisplay:10.37,2013-01-17 17:52:00,
2013-01-17 11:57:00,33.3,-4.6,30.43,WNW,292,6.9,6.9,19,0.00,CLR,,0.00,WeatherDisplay:10.37,2013-01-17 17:57:00,
2013-01-17 12:02:00,34.0,-4.0,30.43,North,0,3.4,3.4,19,0.00,CLR,,0.00,WeatherDisplay:10.37,2013-01-17 18:02:00,
2013-01-17 12:07:00,35.1,-3.1,30.43,North,0,5.8,5.8,19,0.00,CLR,,0.00,WeatherDisplay:10.37,2013-01-17 18:07:00,
2013-01-17 12:12:00,35.2,-3.0,30.43,WNW,292,2.3,2.3,19,0.00,CLR,,0.00,WeatherDisplay:10.37,2013-01-17 18:12:00,
2013-01-17 12:17:00,35.4,-2.8,30.43,NW,315,5.8,5.8,19,0.00,CLR,,0.00,WeatherDisplay:10.37,2013-01-17 18:17:00,
2013-01-17 12:22:00,35.8,-2.5,30.43,NW,315,11.5,11.5,19,0.00,CLR,,0.00,WeatherDisplay:10.37,2013-01-17 18:22:00,
2013-01-17 12:27:00,36.7,-1.8,30.43,WNW,292,6.9,6.9,19,0.00,CLR,,0.00,WeatherDisplay:10.37,2013-01-17 18:27:00,
2013-01-17 12:32:00,37.2,-1.3,30.44,NNE,22,8.1,8.1,19,0.00,CLR,,0.00,WeatherDisplay:10.37,2013-01-17 18:32:00,
2013-01-17 12:37:00,38.1,-0.6,30.43,NNW,338,4.6,4.6,19,0.00,CLR,,0.00,WeatherDisplay:10.37,2013-01-17 18:37:00,
2013-01-17 12:42:00,38.7,-0.1,30.43,WNW,292,2.7,2.7,19,0.00,CLR,,0.00,WeatherDisplay:10.37,2013-01-17 18:42:00,
2013-01-17 12:47:00,38.3,-0.4,30.43,WNW,292,5.8,5.8,19,0.00,CLR,,0.00,WeatherDisplay:10.37,2013-01-17 18:47:00,
2013-01-17 12:52:00,39.6,0.6,30.43,NNW,338,3.5,3.5,19,0.00,CLR,,0.00,WeatherDisplay:10.37,2013-01-17 18:52:00,
2013-01-17 12:57:00,39.4,0.5,30.44,NW,315,1.3,1.3,19,0.00,CLR,,0.00,WeatherDisplay:10.37,2013-01-17 18:57:00,
2013-01-17 13:02:00,39.4,0.5,30.43,WNW,292,0.0,6.0,19,0.00,CLR,,0.00,WeatherDisplay:10.37,2013-01-17 19:02:00,
2013-01-17 13:07:00,40.1,1.1,30.43,NW,315,3.5,3.5,19,0.00,CLR,,0.00,WeatherDisplay:10.37,2013-01-17 19:07:00,
2013-01-17 13:12:00,40.1,1.1,30.43,ENE,68,0.0,0.0,19,0.00,CLR,,0.00,WeatherDisplay:10.37,2013-01-17 19:12:00,
2013-01-17 13:17:00,39.6,0.6,30.44,WNW,292,6.9,6.9,19,0.00,CLR,,0.00,WeatherDisplay:10.37,2013-01-17 19:17:00,
2013-01-17 13:22:00,39.0,0.2,30.44,WNW,292,9.2,9.2,19,0.00,CLR,,0.00,WeatherDisplay:10.37,2013-01-17 19:22:00,
2013-01-17 13:27:00,38.7,-0.1,30.44,WNW,292,2.7,2.7,19,0.00,CLR,,0.00,WeatherDisplay:10.37,2013-01-17 19:27:00,
2013-01-17 13:32:00,38.7,-0.1,30.44,NE,45,8.1,8.1,19,0.00,CLR,,0.00,WeatherDisplay:10.37,2013-01-17 19:32:00,
2013-01-17 13:37:00,39.9,0.9,30.44,East,90,7.2,7.2,19,0.00,CLR,,0.00,WeatherDisplay:10.37,2013-01-17 19:37:00,
2013-01-17 13:42:00,39.0,0.2,30.44,NW,315,4.6,4.6,19,0.00,CLR,,0.00,WeatherDisplay:10.37,2013-01-17 19:42:00,
2013-01-17 13:47:00,37.9,-0.7,30.44,NW,315,2.3,2.3,19,0.00,CLR,,0.00,WeatherDisplay:10.37,2013-01-17 19:47:00,
2013-01-17 13:52:00,37.8,-0.9,30.43,NNW,338,5.8,5.8,19,0.00,CLR,,0.00,WeatherDisplay:10.37,2013-01-17 19:52:00,
2013-01-17 13:57:00,36.7,-1.8,30.43,WNW,292,9.4,9.4,19,0.00,CLR,,0.00,WeatherDisplay:10.37,2013-01-17 19:57:00,
2013-01-17 14:02:00,36.0,-2.4,30.43,WNW,292,9.2,9.2,19,0.00,CLR,,0.00,WeatherDisplay:10.37,2013-01-17 20:02:00,
2013-01-17 14:07:00,35.2,-3.0,30.44,WNW,292,8.1,8.1,19,0.00,CLR,,0.00,WeatherDisplay:10.37,2013-01-17 20:07:00,
2013-01-17 14:12:00,35.8,-2.5,30.44,NNW,338,3.5,3.5,19,0.00,CLR,,0.00,WeatherDisplay:10.37,2013-01-17 20:12:00,
2013-01-17 14:17:00,35.4,-2.8,30.44,NW,315,8.1,8.1,19,0.00,CLR,,0.00,WeatherDisplay:10.37,2013-01-17 20:17:00,
2013-01-17 14:22:00,35.8,-2.5,30.44,NNE,22,0.0,0.0,19,0.00,CLR,,0.00,WeatherDisplay:10.37,2013-01-17 20:22:00,
2013-01-17 14:27:00,36.5,-1.9,30.44,North,0,9.2,9.2,19,0.00,CLR,,0.00,WeatherDisplay:10.37,2013-01-17 20:27:00,
2013-01-17 14:32:00,35.1,-3.1,30.44,NW,315,8.1,8.1,19,0.00,CLR,,0.00,WeatherDisplay:10.37,2013-01-17 20:32:00,
2013-01-17 14:37:00,35.8,-2.5,30.44,NW,315,10.4,10.4,19,0.00,CLR,,0.00,WeatherDisplay:10.37,2013-01-17 20:37:00,
2013-01-17 14:42:00,36.3,-2.1,30.45,NW,315,5.1,5.1,19,0.00,CLR,,0.00,WeatherDisplay:10.37,2013-01-17 20:42:00,
2013-01-17 14:47:00,35.1,-3.1,30.45,NW,315,10.4,10.4,19,0.00,CLR,,0.00,WeatherDisplay:10.37,2013-01-17 20:47:00,
2013-01-17 14:52:00,34.7,-3.4,30.45,NW,315,7.4,7.4,19,0.00,CLR,,0.00,WeatherDisplay:10.37,2013-01-17 20:52:00,
2013-01-17 14:57:00,33.6,-4.3,30.44,NW,315,7.2,7.2,19,0.00,CLR,,0.00,WeatherDisplay:10.37,2013-01-17 20:57:00,
2013-01-17 15:02:00,32.4,-5.4,30.45,NNW,338,0.0,0.0,19,0.00,CLR,,0.00,WeatherDisplay:10.37,2013-01-17 21:02:00,
2013-01-17 15:07:00,31.8,-5.8,30.45,NW,315,8.1,8.1,19,0.00,CLR,,0.00,WeatherDisplay:10.37,2013-01-17 21:07:00,
2013-01-17 15:12:00,33.4,-4.5,30.45,NNE,22,3.5,3.8,19,0.00,CLR,,0.00,WeatherDisplay:10.37,2013-01-17 21:12:00,
2013-01-17 15:17:00,34.0,-4.0,30.44,NW,315,8.1,8.1,19,0.00,CLR,,0.00,WeatherDisplay:10.37,2013-01-17 21:17:00,
2013-01-17 15:22:00,35.1,-3.1,30.45,NW,315,8.1,8.1,19,0.00,CLR,,0.00,WeatherDisplay:10.37,2013-01-17 21:22:00,
2013-01-17 15:27:00,35.6,-2.7,30.45,NNW,338,3.8,3.8,19,0.00,CLR,,0.00,WeatherDisplay:10.37,2013-01-17 21:27:00,
2013-01-17 15:32:00,35.6,-2.7,30.45,NW,315,6.9,6.9,19,0.00,CLR,,0.00,WeatherDisplay:10.37,2013-01-17 21:32:00,
2013-01-17 15:37:00,35.4,-2.8,30.46,North,0,0.0,0.0,19,0.00,CLR,,0.00,WeatherDisplay:10.37,2013-01-17 21:37:00,
2013-01-17 15:42:00,34.3,-3.7,30.46,NE,45,0.0,3.7,19,0.00,CLR,,0.00,WeatherDisplay:10.37,2013-01-17 21:42:00,
2013-01-17 15:47:00,33.3,-4.6,30.47,NE,45,8.1,8.1,19,0.00,CLR,,0.00,WeatherDisplay:10.37,2013-01-17 21:47:00,
2013-01-17 15:52:00,32.9,-4.9,30.47,NNW,338,3.5,3.5,19,0.00,CLR,,0.00,WeatherDisplay:10.37,2013-01-17 21:52:00,
2013-01-17 15:57:00,32.7,-5.1,30.47,WNW,292,1.3,0.0,19,0.00,CLR,,0.00,WeatherDisplay:10.37,2013-01-17 21:57:00,
2013-01-17 16:02:00,32.7,-5.1,30.47,WNW,292,5.1,5.1,19,0.00,CLR,,0.00,WeatherDisplay:10.37,2013-01-17 22:02:00,
2013-01-17 16:07:00,32.7,-5.1,30.47,NNW,338,8.1,8.1,19,0.00,CLR,,0.00,WeatherDisplay:10.37,2013-01-17 22:07:00,
2013-01-17 16:12:00,32.9,-4.9,30.48,WNW,292,4.6,4.6,19,0.00,CLR,,0.00,WeatherDisplay:10.37,2013-01-17 22:12:00,
2013-01-17 16:17:00,32.4,-5.4,30.48,NNW,338,4.6,4.6,19,0.00,CLR,,0.00,WeatherDisplay:10.37,2013-01-17 22:17:00,
2013-01-17 16:22:00,32.2,-5.5,30.48,NNW,338,0.0,0.0,19,0.00,CLR,,0.00,WeatherDisplay:10.37,2013-01-17 22:22:00,
2013-01-17 16:27:00,30.9,-6.6,30.48,NNW,338,1.2,1.6,19,0.00,CLR,,0.00,WeatherDisplay:10.37,2013-01-17 22:27:00,
2013-01-17 16:32:00,28.9,-8.3,30.48,North,0,0.0,0.0,19,0.00,CLR,,0.00,WeatherDisplay:10.37,2013-01-17 22:32:00,
2013-01-17 16:37:00,27.0,-9.9,30.48,NNW,338,0.0,0.0,19,0.00,CLR,,0.00,WeatherDisplay:10.37,2013-01-17 22:37:00,
2013-01-17 16:42:00,25.0,-11.6,30.48,NNW,338,0.0,0.0,19,0.00,CLR,,0.00,WeatherDisplay:10.37,2013-01-17 22:42:00,
2013-01-17 16:47:00,24.3,-12.2,30.48,NNW,338,0.0,0.0,19,0.00,CLR,,0.00,WeatherDisplay:10.37,2013-01-17 22:47:00,
2013-01-17 16:52:00,23.5,-12.8,30.49,North,0,2.3,2.7,19,0.00,CLR,,0.00,WeatherDisplay:10.37,2013-01-17 22:52:00,
2013-01-17 16:57:00,23.2,-13.1,30.49,NW,315,0.0,0.0,19,0.00,CLR,,0.00,WeatherDisplay:10.37,2013-01-17 22:57:00,
2013-01-17 17:02:00,22.6,-11.5,30.49,North,0,0.0,0.0,21,0.00,CLR,,0.00,WeatherDisplay:10.37,2013-01-17 23:02:00,
2013-01-17 17:07:00,22.1,-9.3,30.49,NNE,22,1.6,1.6,24,0.00,CLR,,0.00,WeatherDisplay:10.37,2013-01-17 23:07:00,
2013-01-17 17:12:00,21.9,-7.0,30.49,NW,315,2.3,2.3,27,0.00,CLR,,0.00,WeatherDisplay:10.37,2013-01-17 23:12:00,
2013-01-17 17:17:00,21.7,-5.0,30.49,NW,315,0.0,0.0,30,0.00,CLR,,0.00,WeatherDisplay:10.37,2013-01-17 23:17:00,
2013-01-17 17:22:00,21.4,-5.3,30.49,NNW,338,0.0,0.0,30,0.00,CLR,,0.00,WeatherDisplay:10.37,2013-01-17 23:22:00,
2013-01-17 17:27:00,20.7,-5.3,30.50,NNW,338,0.0,0.0,31,0.00,CLR,,0.00,WeatherDisplay:10.37,2013-01-17 23:27:00,
2013-01-17 17:32:00,20.3,-5.6,30.50,NW,315,0.0,0.0,31,0.00,CLR,,0.00,WeatherDisplay:10.37,2013-01-17 23:32:00,
2013-01-17 17:37:00,20.3,-3.7,30.50,NNW,338,0.0,0.0,34,0.00,CLR,,0.00,WeatherDisplay:10.37,2013-01-17 23:37:00,
2013-01-17 17:42:00,20.1,-3.2,30.49,NNW,338,0.0,0.0,35,0.00,CLR,,0.00,WeatherDisplay:10.37,2013-01-17 23:42:00,
2013-01-17 17:47:00,19.9,-3.4,30.50,NNW,338,0.0,0.0,35,0.00,CLR,,0.00,WeatherDisplay:10.37,2013-01-17 23:47:00,
2013-01-17 17:52:00,19.6,-3.7,30.50,NNW,338,0.0,0.0,35,0.00,CLR,,0.00,WeatherDisplay:10.37,2013-01-17 23:52:00,
2013-01-17 17:57:00,19.2,-3.4,30.50,NNW,338,0.0,0.0,36,0.00,CLR,,0.00,WeatherDisplay:10.37,2013-01-17 23:57:00,
2013-01-17 18:02:00,19.0,-3.6,30.50,NW,315,0.0,0.0,36,0.00,CLR,,0.00,WeatherDisplay:10.37,2013-01-18 00:02:00,
2013-01-17 18:07:00,18.3,-4.2,30.50,NNW,338,0.0,0.0,36,0.00,CLR,,0.00,WeatherDisplay:10.37,2013-01-18 00:07:00,
2013-01-17 18:12:00,18.0,-4.5,30.50,NNW,338,0.0,0.0,36,0.00,CLR,,0.00,WeatherDisplay:10.37,2013-01-18 00:12:00,
2013-01-17 18:17:00,17.8,-4.1,30.51,NNW,338,0.0,0.0,37,0.00,CLR,,0.00,WeatherDisplay:10.37,2013-01-18 00:17:00,
2013-01-17 18:22:00,17.2,-4.6,30.51,NNW,338,0.0,0.0,37,0.00,CLR,,0.00,WeatherDisplay:10.37,2013-01-18 00:22:00,
2013-01-17 18:27:00,17.1,-4.2,30.51,NNW,338,0.0,0.0,38,0.00,CLR,,0.00,WeatherDisplay:10.37,2013-01-18 00:27:00,
2013-01-17 18:32:00,16.9,-3.8,30.52,NNW,338,0.0,0.0,39,0.00,CLR,,0.00,WeatherDisplay:10.37,2013-01-18 00:32:00,
2013-01-17 18:37:00,16.3,-3.8,30.52,NNW,338,0.0,0.0,40,0.00,CLR,,0.00,WeatherDisplay:10.37,2013-01-18 00:37:00,
2013-01-17 18:42:00,16.2,-4.0,30.53,NNW,338,0.0,0.0,40,0.00,CLR,,0.00,WeatherDisplay:10.37,2013-01-18 00:42:00,
2013-01-17 18:47:00,16.2,-4.0,30.52,NNW,338,0.0,0.0,40,0.00,CLR,,0.00,WeatherDisplay:10.37,2013-01-18 00:47:00,
2013-01-17 18:52:00,15.4,-4.1,30.52,NNW,338,0.0,0.0,41,0.00,CLR,,0.00,WeatherDisplay:10.37,2013-01-18 00:52:00,
2013-01-17 18:57:00,15.3,-4.3,30.52,NNW,338,0.0,0.0,41,0.00,CLR,,0.00,WeatherDisplay:10.37,2013-01-18 00:57:00,
2013-01-17 19:02:00,15.1,-3.9,30.53,NNW,338,0.0,0.0,42,0.00,CLR,,0.00,WeatherDisplay:10.37,2013-01-18 01:02:00,
2013-01-17 19:07:00,14.9,-4.1,30.52,NNW,338,0.0,0.0,42,0.00,CLR,,0.00,WeatherDisplay:10.37,2013-01-18 01:07:00,
2013-01-17 19:12:00,14.7,-3.8,30.53,NNW,338,0.0,0.0,43,0.00,CLR,,0.00,WeatherDisplay:10.37,2013-01-18 01:12:00,
2013-01-17 19:17:00,14.7,-3.8,30.53,NNW,338,0.0,0.0,43,0.00,CLR,,0.00,WeatherDisplay:10.37,2013-01-18 01:17:00,
2013-01-17 19:22:00,14.5,-3.5,30.54,NNW,338,0.0,0.0,44,0.00,CLR,,0.00,WeatherDisplay:10.37,2013-01-18 01:22:00,
2013-01-17 19:27:00,14.4,-3.1,30.53,NNW,338,0.0,0.0,45,0.00,CLR,,0.00,WeatherDisplay:10.37,2013-01-18 01:27:00,
2013-01-17 19:32:00,14.2,-3.3,30.53,NNW,338,0.0,0.0,45,0.00,CLR,,0.00,WeatherDisplay:10.37,2013-01-18 01:32:00,
2013-01-17 19:37:00,14.2,-2.8,30.53,NNW,338,0.0,0.0,46,0.00,CLR,,0.00,WeatherDisplay:10.37,2013-01-18 01:37:00,
2013-01-17 19:42:00,13.8,-3.2,30.53,NNW,338,0.0,0.0,46,0.00,CLR,,0.00,WeatherDisplay:10.37,2013-01-18 01:42:00,
2013-01-17 19:47:00,14.2,-2.4,30.53,NNW,338,0.0,0.0,47,0.00,CLR,,0.00,WeatherDisplay:10.37,2013-01-18 01:47:00,
2013-01-17 19:52:00,13.8,-2.3,30.53,NW,315,0.0,0.0,48,0.00,CLR,,0.00,WeatherDisplay:10.37,2013-01-18 01:52:00,
2013-01-17 19:57:00,14.2,-1.9,30.53,NNW,338,0.0,0.0,48,0.00,CLR,,0.00,WeatherDisplay:10.37,2013-01-18 01:57:00,
2013-01-17 20:02:00,13.8,-1.8,30.53,NNW,338,0.0,0.0,49,0.00,CLR,,0.00,WeatherDisplay:10.37,2013-01-18 02:02:00,
2013-01-17 20:07:00,13.8,-1.4,30.53,NW,315,0.0,0.0,50,0.00,CLR,,0.00,WeatherDisplay:10.37,2013-01-18 02:07:00,
2013-01-17 20:12:00,14.2,-1.1,30.53,NW,315,0.0,0.0,50,0.00,CLR,,0.00,WeatherDisplay:10.37,2013-01-18 02:12:00,
2013-01-17 20:17:00,14.7,-0.2,30.53,WNW,292,0.0,0.0,51,0.00,CLR,,0.00,WeatherDisplay:10.37,2013-01-18 02:17:00,
2013-01-17 20:22:00,14.7,-0.2,30.53,WNW,292,0.0,0.0,51,0.00,CLR,,0.00,WeatherDisplay:10.37,2013-01-18 02:22:00,
2013-01-17 20:27:00,15.3,0.3,30.53,SW,225,0.0,0.0,51,0.00,CLR,,0.00,WeatherDisplay:10.37,2013-01-18 02:27:00,
2013-01-17 20:32:00,16.2,1.2,30.54,SW,225,0.0,0.0,51,0.00,CLR,,0.00,WeatherDisplay:10.37,2013-01-18 02:32:00,
2013-01-17 20:37:00,16.5,1.5,30.54,SW,225,0.0,0.0,51,0.00,CLR,,0.00,WeatherDisplay:10.37,2013-01-18 02:37:00,
2013-01-17 20:42:00,16.9,1.8,30.54,WSW,248,4.6,4.7,51,0.00,CLR,,0.00,WeatherDisplay:10.37,2013-01-18 02:42:00,
2013-01-17 20:47:00,17.1,1.6,30.55,SW,225,0.0,0.0,50,0.00,CLR,,0.00,WeatherDisplay:10.37,2013-01-18 02:47:00,
2013-01-17 20:52:00,17.2,1.8,30.55,WSW,248,0.0,0.0,50,0.00,CLR,,0.00,WeatherDisplay:10.37,2013-01-18 02:52:00,
2013-01-17 20:57:00,17.8,1.8,30.55,SW,225,0.0,0.0,49,0.00,CLR,,0.00,WeatherDisplay:10.37,2013-01-18 02:57:00,
2013-01-17 21:02:00,17.8,1.8,30.55,SW,225,0.0,0.0,49,0.00,CLR,,0.00,WeatherDisplay:10.37,2013-01-18 03:02:00,
2013-01-17 21:07:00,17.4,1.0,30.55,SW,225,0.0,0.0,48,0.00,CLR,,0.00,WeatherDisplay:10.37,2013-01-18 03:07:00,
2013-01-17 21:12:00,17.6,1.2,30.55,SW,225,0.0,0.0,48,0.00,CLR,,0.00,WeatherDisplay:10.37,2013-01-18 03:12:00,
2013-01-17 21:17:00,17.8,1.4,30.55,SW,225,0.0,0.0,48,0.00,CLR,,0.00,WeatherDisplay:10.37,2013-01-18 03:17:00,
2013-01-17 21:22:00,17.6,0.8,30.55,SW,225,0.0,0.0,47,0.00,CLR,,0.00,WeatherDisplay:10.37,2013-01-18 03:22:00,
2013-01-17 21:27:00,17.8,0.9,30.55,SW,225,0.0,0.0,47,0.00,CLR,,0.00,WeatherDisplay:10.37,2013-01-18 03:27:00,
2013-01-17 21:32:00,17.8,0.9,30.55,SW,225,0.0,0.0,47,0.00,CLR,,0.00,WeatherDisplay:10.37,2013-01-18 03:32:00,
2013-01-17 21:37:00,17.6,0.8,30.55,WSW,248,0.0,0.0,47,0.00,CLR,,0.00,WeatherDisplay:10.37,2013-01-18 03:37:00,
2013-01-17 21:42:00,17.6,0.8,30.55,WSW,248,0.0,0.0,47,0.00,CLR,,0.00,WeatherDisplay:10.37,2013-01-18 03:42:00,
2013-01-17 21:47:00,17.4,0.1,30.55,WSW,248,0.0,0.0,46,0.00,CLR,,0.00,WeatherDisplay:10.37,2013-01-18 03:47:00,
2013-01-17 21:52:00,17.2,0.0,30.55,WSW,248,0.0,0.0,46,0.00,CLR,,0.00,WeatherDisplay:10.37,2013-01-18 03:52:00,
2013-01-17 21:57:00,16.9,-0.4,30.55,WSW,248,0.0,0.0,46,0.00,CLR,,0.00,WeatherDisplay:10.37,2013-01-18 03:57:00,
2013-01-17 22:02:00,16.7,-0.5,30.55,WSW,248,0.0,0.0,46,0.00,CLR,,0.00,WeatherDisplay:10.37,2013-01-18 04:02:00,
2013-01-17 22:07:00,16.7,-0.1,30.55,WSW,248,0.0,0.0,47,0.00,CLR,,0.00,WeatherDisplay:10.37,2013-01-18 04:07:00,
2013-01-17 22:12:00,16.5,-0.2,30.55,WSW,248,0.0,0.0,47,0.00,CLR,,0.00,WeatherDisplay:10.37,2013-01-18 04:12:00,
2013-01-17 22:17:00,16.3,-0.4,30.55,WSW,248,0.0,0.0,47,0.00,CLR,,0.00,WeatherDisplay:10.37,2013-01-18 04:17:00,
2013-01-17 22:22:00,16.5,0.2,30.54,SW,225,0.0,0.0,48,0.00,CLR,,0.00,WeatherDisplay:10.37,2013-01-18 04:22:00,
2013-01-17 22:27:00,16.7,0.4,30.54,SW,225,0.0,0.0,48,0.00,CLR,,0.00,WeatherDisplay:10.37,2013-01-18 04:27:00,
2013-01-17 22:32:00,16.7,0.4,30.54,SW,225,0.0,0.0,48,0.00,CLR,,0.00,WeatherDisplay:10.37,2013-01-18 04:32:00,
2013-01-17 22:37:00,16.7,0.4,30.54,SW,225,0.0,0.0,48,0.00,CLR,,0.00,WeatherDisplay:10.37,2013-01-18 04:37:00,
2013-01-17 22:42:00,16.5,0.2,30.55,SW,225,0.0,0.0,48,0.00,CLR,,0.00,WeatherDisplay:10.37,2013-01-18 04:42:00,
2013-01-17 22:47:00,16.0,-0.7,30.55,SW,225,0.0,0.0,47,0.00,CLR,,0.00,WeatherDisplay:10.37,2013-01-18 04:47:00,
2013-01-17 22:52:00,15.6,-1.1,30.54,SW,225,0.0,0.0,47,0.00,CLR,,0.00,WeatherDisplay:10.37,2013-01-18 04:52:00,
2013-01-17 22:57:00,15.4,-0.8,30.55,SW,225,0.0,0.0,48,0.00,CLR,,0.00,WeatherDisplay:10.37,2013-01-18 04:57:00,
2013-01-17 23:00:00,15.4,-0.8,30.55,SW,225,0.0,0.0,48,0.00,CLR,,0.00,WeatherDisplay:10.37,2013-01-18 05:00:00,
2013-01-17 23:01:00,15.4,-0.8,30.55,SW,225,0.0,0.0,48,0.00,CLR,,0.00,WeatherDisplay:10.37,2013-01-18 05:01:00,
2013-01-17 23:03:00,15.4,-0.8,30.55,SW,225,0.0,0.0,48,0.00,CLR,,0.00,WeatherDisplay:10.37,2013-01-18 05:03:00,
2013-01-17 23:04:00,15.4,-0.8,30.55,SW,225,0.0,0.0,48,0.00,CLR,,0.00,WeatherDisplay:10.37,2013-01-18 05:04:00,
2013-01-17 23:09:00,15.3,-1.0,30.54,SW,225,0.0,0.0,48,0.00,CLR,,0.00,WeatherDisplay:10.37,2013-01-18 05:09:00,
2013-01-17 23:14:00,15.1,-0.7,30.54,SW,225,0.0,0.0,49,0.00,CLR,,0.00,WeatherDisplay:10.37,2013-01-18 05:14:00,
2013-01-17 23:19:00,15.3,-0.5,30.54,SW,225,0.0,0.0,49,0.00,CLR,,0.00,WeatherDisplay:10.37,2013-01-18 05:19:00,
2013-01-17 23:24:00,14.9,-0.8,30.54,SW,225,0.0,0.0,49,0.00,CLR,,0.00,WeatherDisplay:10.37,2013-01-18 05:24:00,
2013-01-17 23:29:00,14.4,-1.3,30.54,SW,225,0.0,0.0,49,0.00,CLR,,0.00,WeatherDisplay:10.37,2013-01-18 05:29:00,
2013-01-17 23:34:00,14.2,-1.5,30.54,SW,225,0.0,0.0,49,0.00,CLR,,0.00,WeatherDisplay:10.37,2013-01-18 05:34:00,
2013-01-17 23:39:00,14.2,-1.1,30.54,SW,225,0.0,0.0,50,0.00,CLR,,0.00,WeatherDisplay:10.37,2013-01-18 05:39:00,
2013-01-17 23:44:00,13.8,-1.4,30.54,SW,225,0.0,0.0,50,0.00,CLR,,0.00,WeatherDisplay:10.37,2013-01-18 05:44:00,
2013-01-17 23:49:00,13.5,-1.8,30.54,SW,225,0.0,0.0,50,0.00,CLR,,0.00,WeatherDisplay:10.37,2013-01-18 05:49:00,
2013-01-17 23:54:00,13.1,-2.1,30.54,SW,225,0.0,0.0,50,0.00,CLR,,0.00,WeatherDisplay:10.37,2013-01-18 05:54:00,
2013-01-17 23:59:00,12.9,-1.8,30.54,SW,225,0.0,0.0,51,0.00,CLR,,0.00,WeatherDisplay:10.37,2013-01-18 05:59:00,